createdAt,value
2018-09-20T00:00:59.210Z,20.40
2018-09-20T00:03:27.448Z,20.40
2018-09-20T00:05:55.873Z,20.40
2018-09-20T00:08:24.066Z,20.50
2018-09-20T00:10:52.274Z,20.50
2018-09-20T00:13:20.484Z,20.50
2018-09-20T00:15:48.856Z,20.40
2018-09-20T00:18:17.119Z,20.30
2018-09-20T00:20:45.368Z,20.30
2018-09-20T00:23:13.572Z,20.20
2018-09-20T00:25:41.778Z,20.10
2018-09-20T00:28:10.008Z,20.10
2018-09-20T00:30:38.174Z,20.10
2018-09-20T00:33:06.392Z,20.10
2018-09-20T00:35:34.606Z,20.10
2018-09-20T00:38:02.844Z,20.10
2018-09-20T00:40:31.264Z,20.10
2018-09-20T00:42:59.464Z,20.10
2018-09-20T00:45:27.664Z,20.00
2018-09-20T00:47:56.138Z,20.00
2018-09-20T00:50:24.400Z,20.10
2018-09-20T00:52:52.580Z,20.10
2018-09-20T00:55:20.773Z,20.10
2018-09-20T00:57:48.968Z,20.00
2018-09-20T01:00:17.222Z,20.00
2018-09-20T01:02:45.534Z,20.00
2018-09-20T01:05:13.770Z,20.00
2018-09-20T01:07:41.974Z,19.90
2018-09-20T01:10:10.186Z,19.90
2018-09-20T01:12:38.525Z,19.90
2018-09-20T01:15:07.414Z,20.00
2018-09-20T01:17:35.659Z,19.90
2018-09-20T01:20:04.081Z,19.90
2018-09-20T01:22:32.276Z,19.90
2018-09-20T01:25:00.472Z,19.90
2018-09-20T01:27:28.690Z,19.90
2018-09-20T01:29:56.960Z,19.90
2018-09-20T01:32:25.167Z,19.90
2018-09-20T01:34:53.352Z,19.70
2018-09-20T01:37:21.538Z,19.70
2018-09-20T01:39:49.810Z,19.60
2018-09-20T01:42:18.078Z,19.60
2018-09-20T01:44:46.267Z,19.60
2018-09-20T01:47:14.468Z,19.60
2018-09-20T01:49:42.733Z,19.60
2018-09-20T01:52:10.936Z,19.50
2018-09-20T01:54:39.146Z,19.50
2018-09-20T01:57:07.628Z,19.40
2018-09-20T01:59:35.878Z,19.40
2018-09-20T02:02:04.114Z,19.40
2018-09-20T02:04:32.302Z,19.40
2018-09-20T02:07:00.524Z,19.30
2018-09-20T02:09:28.702Z,19.30
2018-09-20T02:11:56.900Z,19.30
2018-09-20T02:14:25.100Z,19.30
2018-09-20T02:16:53.308Z,19.40
2018-09-20T02:19:21.560Z,19.30
2018-09-20T02:21:49.762Z,19.30
2018-09-20T02:24:17.966Z,19.30
2018-09-20T02:26:46.217Z,19.20
2018-09-20T02:29:14.486Z,19.20
2018-09-20T02:31:42.670Z,19.30
2018-09-20T02:34:10.830Z,19.30
2018-09-20T02:36:39.046Z,19.30
2018-09-20T02:39:08.096Z,19.30
2018-09-20T02:41:36.530Z,19.30
2018-09-20T02:44:04.731Z,19.20
2018-09-20T02:46:32.916Z,19.30
2018-09-20T02:49:01.197Z,19.20
2018-09-20T02:51:29.377Z,19.20
2018-09-20T02:53:57.595Z,19.20
2018-09-20T02:56:25.783Z,19.10
2018-09-20T02:58:54.399Z,19.10
2018-09-20T03:01:22.627Z,19.10
2018-09-20T03:03:50.814Z,19.00
2018-09-20T03:06:19.130Z,19.00
2018-09-20T03:08:47.372Z,19.10
2018-09-20T03:11:15.575Z,19.00
2018-09-20T03:13:43.778Z,19.00
2018-09-20T03:16:12.051Z,19.00
2018-09-20T03:18:40.276Z,19.00
2018-09-20T03:21:08.470Z,19.00
2018-09-20T03:23:36.652Z,18.90
2018-09-20T03:26:04.869Z,18.90
2018-09-20T03:28:33.103Z,18.90
2018-09-20T03:31:01.299Z,18.80
2018-09-20T03:33:29.494Z,18.90
2018-09-20T03:35:57.697Z,18.80
2018-09-20T03:38:25.980Z,18.80
2018-09-20T03:40:54.223Z,18.80
2018-09-20T03:43:22.480Z,18.70
2018-09-20T03:45:50.844Z,18.70
2018-09-20T03:48:19.093Z,18.60
2018-09-20T03:50:47.286Z,18.60
2018-09-20T03:53:15.478Z,18.50
2018-09-20T03:55:43.671Z,18.50
2018-09-20T03:58:12.216Z,18.50
2018-09-20T04:00:40.450Z,18.50
2018-09-20T04:03:08.643Z,18.50
2018-09-20T04:05:36.848Z,18.50
2018-09-20T04:08:05.092Z,18.50
2018-09-20T04:10:33.327Z,18.50
2018-09-20T04:13:01.536Z,18.50
2018-09-20T04:15:29.705Z,18.40
2018-09-20T04:17:58.233Z,18.40
2018-09-20T04:20:26.417Z,18.40
2018-09-20T04:22:54.637Z,18.40
2018-09-20T04:25:22.839Z,18.50
2018-09-20T04:27:51.239Z,18.50
2018-09-20T04:30:19.433Z,18.50
2018-09-20T04:32:47.618Z,18.60
2018-09-20T04:35:15.827Z,18.60
2018-09-20T04:37:44.071Z,18.60
2018-09-20T04:40:12.269Z,18.70
2018-09-20T04:42:40.475Z,18.70
2018-09-20T04:45:08.826Z,18.70
2018-09-20T04:47:37.047Z,18.70
2018-09-20T04:50:05.239Z,18.80
2018-09-20T04:52:33.428Z,18.80
2018-09-20T04:55:01.684Z,18.80
2018-09-20T04:57:29.863Z,18.80
2018-09-20T04:59:58.071Z,18.80
2018-09-20T05:02:26.258Z,18.90
2018-09-20T05:04:54.815Z,18.90
2018-09-20T05:07:23.008Z,18.80
2018-09-20T05:09:51.192Z,18.80
2018-09-20T05:12:19.402Z,18.80
2018-09-20T05:14:47.628Z,18.80
2018-09-20T05:17:15.826Z,18.80
2018-09-20T05:19:44.004Z,18.80
2018-09-20T05:22:12.210Z,18.80
2018-09-20T05:24:40.393Z,18.90
2018-09-20T05:27:08.632Z,18.90
2018-09-20T05:29:36.827Z,18.80
2018-09-20T05:32:05.130Z,18.80
2018-09-20T05:34:33.333Z,18.80
2018-09-20T05:37:01.532Z,18.70
2018-09-20T05:39:29.728Z,18.70
2018-09-20T05:41:57.930Z,18.60
2018-09-20T05:44:26.117Z,18.60
2018-09-20T05:46:54.338Z,18.60
2018-09-20T05:49:22.550Z,18.60
2018-09-20T05:51:50.747Z,18.60
2018-09-20T05:54:18.948Z,18.60
2018-09-20T05:56:47.134Z,18.60
2018-09-20T05:59:15.351Z,18.60
2018-09-20T06:01:43.559Z,18.60
2018-09-20T06:04:11.756Z,18.60
2018-09-20T06:06:39.984Z,18.60
2018-09-20T06:09:09.058Z,18.60
2018-09-20T06:11:37.242Z,18.60
2018-09-20T06:14:05.594Z,18.50
2018-09-20T06:16:33.812Z,18.50
2018-09-20T06:19:02.024Z,18.50
2018-09-20T06:21:30.235Z,18.40
2018-09-20T06:23:58.405Z,18.40
2018-09-20T06:27:56.307Z,18.30
2018-09-20T06:30:24.698Z,18.30
2018-09-20T06:32:52.911Z,18.40
2018-09-20T06:35:21.963Z,18.50
2018-09-20T06:37:50.494Z,18.60
2018-09-20T06:40:18.841Z,18.60
2018-09-20T06:42:47.037Z,18.70
2018-09-20T06:45:15.248Z,18.90
2018-09-20T06:47:43.592Z,19.00
2018-09-20T06:50:12.068Z,19.10
2018-09-20T06:52:40.540Z,19.20
2018-09-20T06:55:09.052Z,19.40
2018-09-20T06:57:37.619Z,19.50
2018-09-20T07:00:07.328Z,19.70
2018-09-20T07:02:35.926Z,19.90
2018-09-20T07:05:04.919Z,20.00
2018-09-20T07:07:33.111Z,20.00
2018-09-20T07:10:01.594Z,20.10
2018-09-20T07:12:30.232Z,20.20
2018-09-20T07:14:58.647Z,20.30
2018-09-20T07:17:26.859Z,20.40
2018-09-20T07:19:55.558Z,20.50
2018-09-20T07:22:23.756Z,20.70
2018-09-20T07:24:51.960Z,21.10
2018-09-20T07:27:20.162Z,21.50
2018-09-20T07:29:48.392Z,22.10
2018-09-20T07:32:16.735Z,22.80
2018-09-20T07:34:44.939Z,23.70
2018-09-20T07:37:13.152Z,24.70
2018-09-20T07:39:41.560Z,25.70
2018-09-20T07:42:09.963Z,26.50
2018-09-20T07:44:38.175Z,26.80
2018-09-20T07:47:06.378Z,27.10
2018-09-20T07:49:34.610Z,27.50
2018-09-20T07:52:02.805Z,28.20
2018-09-20T07:54:31.014Z,28.90
2018-09-20T07:56:59.214Z,29.60
2018-09-20T07:59:27.394Z,29.90
2018-09-20T08:01:55.662Z,30.20
2018-09-20T08:04:23.803Z,30.40
2018-09-20T08:06:52.051Z,30.60
2018-09-20T08:09:20.195Z,30.80
2018-09-20T08:11:48.418Z,31.10
2018-09-20T08:14:16.824Z,31.50
2018-09-20T08:16:45.017Z,31.90
2018-09-20T08:19:13.382Z,32.20
2018-09-20T08:22:11.554Z,32.60
2018-09-20T08:24:39.751Z,32.90
2018-09-20T08:27:07.939Z,33.00
2018-09-20T08:29:36.155Z,33.40
2018-09-20T08:32:04.582Z,33.70
2018-09-20T08:34:32.760Z,33.90
2018-09-20T08:37:00.991Z,33.70
2018-09-20T08:39:29.175Z,33.30
2018-09-20T08:41:57.390Z,33.00
2018-09-20T08:44:25.588Z,33.00
2018-09-20T08:46:53.782Z,33.00
2018-09-20T08:49:21.960Z,33.10
2018-09-20T08:51:50.149Z,33.20
2018-09-20T08:54:18.339Z,33.30
2018-09-20T08:56:46.545Z,33.30
2018-09-20T08:59:14.738Z,33.20
2018-09-20T09:01:42.958Z,33.20
2018-09-20T09:04:11.175Z,33.20
2018-09-20T09:06:39.355Z,33.10
2018-09-20T09:09:08.967Z,33.30
2018-09-20T09:11:37.875Z,33.50
2018-09-20T09:14:06.337Z,33.50
2018-09-20T09:16:34.507Z,33.60
2018-09-20T09:19:02.919Z,33.90
2018-09-20T09:21:31.093Z,34.20
2018-09-20T09:23:59.291Z,34.50
2018-09-20T09:26:27.489Z,34.70
2018-09-20T09:28:55.688Z,35.10
2018-09-20T09:31:23.875Z,35.60
2018-09-20T09:33:52.126Z,35.70
2018-09-20T09:36:20.399Z,35.80
2018-09-20T09:38:49.045Z,36.00
2018-09-20T09:41:17.214Z,36.00
2018-09-20T09:43:45.403Z,36.20
2018-09-20T09:46:13.594Z,36.80
2018-09-20T09:48:41.994Z,37.10
2018-09-20T09:51:10.507Z,37.60
2018-09-20T09:53:38.687Z,37.40
2018-09-20T09:56:06.859Z,36.90
2018-09-20T09:58:35.125Z,36.60
2018-09-20T10:01:03.319Z,36.50
2018-09-20T10:03:31.539Z,36.50
2018-09-20T10:05:59.726Z,36.70
2018-09-20T10:08:27.973Z,37.20
2018-09-20T10:10:56.161Z,37.20
2018-09-20T10:13:24.418Z,37.20
2018-09-20T10:15:52.565Z,37.20
2018-09-20T10:18:20.780Z,37.20
2018-09-20T10:20:48.989Z,37.50
2018-09-20T10:23:17.197Z,38.00
2018-09-20T10:25:45.379Z,38.50
2018-09-20T10:28:13.835Z,38.60
2018-09-20T10:30:42.038Z,38.70
2018-09-20T10:33:10.216Z,38.60
2018-09-20T10:35:38.408Z,38.50
2018-09-20T10:38:06.641Z,38.30
2018-09-20T10:40:34.861Z,38.10
2018-09-20T10:43:03.058Z,38.00
2018-09-20T10:45:31.258Z,38.10
2018-09-20T10:47:59.677Z,38.20
2018-09-20T10:50:27.870Z,37.80
2018-09-20T10:52:56.072Z,37.80
2018-09-20T10:55:24.273Z,38.00
2018-09-20T10:57:52.514Z,38.30
2018-09-20T11:00:20.697Z,38.50
2018-09-20T11:02:48.912Z,38.80
2018-09-20T11:05:17.200Z,39.10
2018-09-20T11:07:45.375Z,39.00
2018-09-20T11:10:13.614Z,39.20
2018-09-20T11:12:41.804Z,39.80
2018-09-20T11:15:10.044Z,39.20
2018-09-20T11:17:38.228Z,39.20
2018-09-20T11:20:06.708Z,39.60
2018-09-20T11:22:34.926Z,39.80
2018-09-20T11:25:03.136Z,39.90
2018-09-20T11:27:31.312Z,39.70
2018-09-20T11:29:59.543Z,39.60
2018-09-20T11:32:27.736Z,39.70
2018-09-20T11:34:55.930Z,39.80
2018-09-20T11:37:24.120Z,40.30
2018-09-20T11:39:52.338Z,40.80
2018-09-20T11:42:20.525Z,41.60
2018-09-20T11:44:48.730Z,41.70
2018-09-20T11:47:16.964Z,41.30
2018-09-20T11:49:45.134Z,41.40
2018-09-20T11:52:13.354Z,41.70
2018-09-20T11:54:41.573Z,41.90
2018-09-20T11:57:09.754Z,42.10
2018-09-20T11:59:38.030Z,42.40
2018-09-20T12:02:06.247Z,42.50
2018-09-20T12:04:34.443Z,42.60
2018-09-20T12:07:02.635Z,42.70
2018-09-20T12:09:30.856Z,42.60
2018-09-20T12:11:59.035Z,42.70
2018-09-20T12:14:27.255Z,42.70
2018-09-20T12:16:55.449Z,42.50
2018-09-20T12:19:23.680Z,42.70
2018-09-20T12:21:51.874Z,42.80
2018-09-20T12:24:20.096Z,42.80
2018-09-20T12:26:48.472Z,42.60
2018-09-20T12:29:16.645Z,42.40
2018-09-20T12:31:44.893Z,42.30
2018-09-20T12:34:13.048Z,41.70
2018-09-20T12:36:41.601Z,41.50
2018-09-20T12:39:12.121Z,41.80
2018-09-20T12:41:40.560Z,42.00
2018-09-20T12:44:08.776Z,42.10
2018-09-20T12:46:37.067Z,42.30
2018-09-20T12:49:05.634Z,42.00
2018-09-20T12:51:34.552Z,41.30
2018-09-20T12:54:03.160Z,40.90
2018-09-20T12:56:31.529Z,41.10
2018-09-20T12:58:59.734Z,41.30
2018-09-20T13:01:27.924Z,41.20
2018-09-20T13:03:56.095Z,41.20
2018-09-20T13:06:24.287Z,41.40
2018-09-20T13:08:52.473Z,41.40
2018-09-20T13:11:20.682Z,41.10
2018-09-20T13:13:48.872Z,41.30
2018-09-20T13:16:17.032Z,41.20
2018-09-20T13:18:45.245Z,41.30
2018-09-20T13:21:13.459Z,40.90
2018-09-20T13:23:41.671Z,40.70
2018-09-20T13:26:10.081Z,40.90
2018-09-20T13:28:38.303Z,41.20
2018-09-20T13:31:06.481Z,41.40
2018-09-20T13:33:34.664Z,41.30
2018-09-20T13:36:02.840Z,40.90
2018-09-20T13:38:31.039Z,40.70
2018-09-20T13:40:59.262Z,40.70
2018-09-20T13:43:27.515Z,40.90
2018-09-20T13:45:55.674Z,41.30
2018-09-20T13:48:23.909Z,41.40
2018-09-20T13:50:52.124Z,41.00
2018-09-20T13:53:20.330Z,40.60
2018-09-20T13:55:48.506Z,40.40
2018-09-20T13:58:16.722Z,40.50
2018-09-20T14:00:44.890Z,40.20
2018-09-20T14:03:13.120Z,40.20
2018-09-20T14:05:41.310Z,40.30
2018-09-20T14:08:09.580Z,40.00
2018-09-20T14:10:37.762Z,39.70
2018-09-20T14:13:05.944Z,39.80
2018-09-20T14:15:34.186Z,39.80
2018-09-20T14:18:02.408Z,40.00
2018-09-20T14:20:30.624Z,40.00
2018-09-20T14:22:58.811Z,40.20
2018-09-20T14:25:27.043Z,40.60
2018-09-20T14:27:55.410Z,40.60
2018-09-20T14:30:23.620Z,40.40
2018-09-20T14:32:51.833Z,40.40
2018-09-20T14:35:20.032Z,40.30
2018-09-20T14:37:48.239Z,40.10
2018-09-20T14:40:16.468Z,40.20
2018-09-20T14:42:44.713Z,40.40
2018-09-20T14:45:12.937Z,40.50
2018-09-20T14:47:41.197Z,40.60
2018-09-20T14:50:09.482Z,40.50
2018-09-20T14:52:39.137Z,40.10
2018-09-20T14:55:08.712Z,39.50
2018-09-20T14:57:38.994Z,39.00
2018-09-20T15:00:07.195Z,38.50
2018-09-20T15:02:35.387Z,37.60
2018-09-20T15:05:03.604Z,36.60
2018-09-20T15:07:31.795Z,35.60
2018-09-20T15:09:59.975Z,34.90
2018-09-20T15:12:28.187Z,34.30
2018-09-20T15:14:56.375Z,33.80
2018-09-20T15:17:24.571Z,33.50
2018-09-20T15:19:52.765Z,33.20
2018-09-20T15:22:20.969Z,32.90
2018-09-20T15:24:49.177Z,32.70
2018-09-20T15:27:17.403Z,32.60
2018-09-20T15:29:45.707Z,32.40
2018-09-20T15:32:13.875Z,32.30
2018-09-20T15:34:42.107Z,32.00
2018-09-20T15:37:10.295Z,31.90
2018-09-20T15:39:38.528Z,31.80
2018-09-20T15:42:06.712Z,31.70
2018-09-20T15:44:34.936Z,31.70
2018-09-20T15:47:03.164Z,31.90
2018-09-20T15:49:31.394Z,32.10
2018-09-20T15:51:59.660Z,32.30
2018-09-20T15:54:27.862Z,32.50
2018-09-20T15:56:56.075Z,32.80
2018-09-20T15:59:24.604Z,32.80
2018-09-20T16:01:52.799Z,32.70
2018-09-20T16:04:21.026Z,32.60
2018-09-20T16:06:49.402Z,32.50
2018-09-20T16:09:17.622Z,32.30
2018-09-20T16:11:45.823Z,32.10
2018-09-20T16:14:14.054Z,31.80
2018-09-20T16:16:42.214Z,31.60
2018-09-20T16:19:10.402Z,31.50
2018-09-20T16:21:38.595Z,31.50
2018-09-20T16:24:06.859Z,31.50
2018-09-20T16:26:35.069Z,31.40
2018-09-20T16:29:21.570Z,31.20
2018-09-20T16:34:04.251Z,31.00
2018-09-20T16:36:52.193Z,30.70
2018-09-20T16:39:23.946Z,30.30
2018-09-20T16:41:57.307Z,30.10
2018-09-20T16:44:25.528Z,30.00
2018-09-20T16:46:53.716Z,29.80
2018-09-20T16:49:21.937Z,29.70
2018-09-20T16:51:50.110Z,29.60
2018-09-20T16:54:18.296Z,29.50
2018-09-20T16:56:46.562Z,29.40
2018-09-20T16:59:14.763Z,29.30
2018-09-20T17:01:42.960Z,29.20
2018-09-20T17:04:11.185Z,29.00
2018-09-20T17:06:39.387Z,28.90
2018-09-20T17:09:08.315Z,28.80
2018-09-20T17:11:36.530Z,28.60
2018-09-20T17:14:04.754Z,28.50
2018-09-20T17:16:33.115Z,28.40
2018-09-20T17:19:01.219Z,28.20
2018-09-20T17:21:29.430Z,28.00
2018-09-20T17:23:57.648Z,27.90
2018-09-20T17:26:25.846Z,27.80
2018-09-20T17:28:54.057Z,27.60
2018-09-20T17:31:22.254Z,27.50
2018-09-20T17:33:50.489Z,27.40
2018-09-20T17:36:19.658Z,27.20
2018-09-20T17:38:49.247Z,27.10
2018-09-20T17:41:22.360Z,27.00
2018-09-20T17:43:52.628Z,26.80
2018-09-20T17:46:20.838Z,26.70
2018-09-20T17:48:49.052Z,26.60
2018-09-20T17:51:18.540Z,26.50
2018-09-20T17:53:47.130Z,26.40
2018-09-20T17:56:15.938Z,26.30
2018-09-20T17:58:44.773Z,26.20
2018-09-20T18:01:12.969Z,26.20
2018-09-20T18:03:41.254Z,26.10
2018-09-20T18:06:09.589Z,26.10
2018-09-20T18:08:37.861Z,26.00
2018-09-20T18:11:06.204Z,25.90
2018-09-20T18:13:34.398Z,25.90
2018-09-20T18:16:02.628Z,25.70
2018-09-20T18:18:30.883Z,25.60
2018-09-20T18:20:59.089Z,25.60
2018-09-20T18:23:27.279Z,25.50
2018-09-20T18:25:55.501Z,25.40
2018-09-20T18:28:23.705Z,25.30
2018-09-20T18:30:51.899Z,25.20
2018-09-20T18:33:20.099Z,25.20
2018-09-20T18:35:48.322Z,25.20
2018-09-20T18:38:16.546Z,25.20
2018-09-20T18:40:44.748Z,25.10
2018-09-20T18:43:12.979Z,25.10
2018-09-20T18:45:41.350Z,25.00
2018-09-20T18:48:09.629Z,25.00
2018-09-20T18:50:37.851Z,25.00
2018-09-20T18:53:06.082Z,24.90
2018-09-20T18:55:34.332Z,24.90
2018-09-20T18:58:02.534Z,24.80
2018-09-20T19:00:30.778Z,24.70
2018-09-20T19:02:59.014Z,24.70
2018-09-20T19:05:27.213Z,24.60
2018-09-20T19:07:55.468Z,24.60
2018-09-20T19:10:23.689Z,24.60
2018-09-20T19:12:51.926Z,24.50
2018-09-20T19:15:20.137Z,24.50
2018-09-20T19:17:48.431Z,24.40
2018-09-20T19:20:16.607Z,24.40
2018-09-20T19:22:44.819Z,24.30
2018-09-20T19:25:13.007Z,24.30
2018-09-20T19:27:41.324Z,24.30
2018-09-20T19:30:09.463Z,24.20
2018-09-20T19:32:37.702Z,24.20
2018-09-20T19:35:05.939Z,24.10
2018-09-20T19:37:34.155Z,24.10
2018-09-20T19:40:02.404Z,24.10
2018-09-20T19:42:30.667Z,24.10
2018-09-20T19:44:58.877Z,24.00
2018-09-20T19:47:27.093Z,24.00
2018-09-20T19:49:55.272Z,24.00
2018-09-20T19:52:23.471Z,23.90
2018-09-20T19:54:51.690Z,23.90
2018-09-20T19:57:20.123Z,23.80
2018-09-20T19:59:48.334Z,23.80
2018-09-20T20:02:16.573Z,23.80
2018-09-20T20:04:44.795Z,23.70
2018-09-20T20:07:14.855Z,23.70
2018-09-20T20:09:43.022Z,23.70
2018-09-20T20:12:11.225Z,23.60
2018-09-20T20:14:39.440Z,23.60
2018-09-20T20:17:07.634Z,23.50
2018-09-20T20:19:35.952Z,23.50
2018-09-20T20:22:04.124Z,23.50
2018-09-20T20:24:32.365Z,23.40
2018-09-20T20:27:00.577Z,23.40
2018-09-20T20:29:28.781Z,23.40
2018-09-20T20:31:56.966Z,23.40
2018-09-20T20:34:25.158Z,23.30
2018-09-20T20:36:53.353Z,23.20
2018-09-20T20:39:21.575Z,23.10
2018-09-20T20:41:49.775Z,23.00
2018-09-20T20:44:17.966Z,22.90
2018-09-20T20:46:46.394Z,22.80
2018-09-20T20:49:14.601Z,22.70
2018-09-20T20:51:42.987Z,22.70
2018-09-20T20:54:11.203Z,22.70
2018-09-20T20:56:39.423Z,22.70
2018-09-20T20:59:07.948Z,22.70
2018-09-20T21:01:36.536Z,22.70
2018-09-20T21:04:04.731Z,22.70
2018-09-20T21:06:32.909Z,22.70
2018-09-20T21:09:01.139Z,22.70
2018-09-20T21:11:29.356Z,22.70
2018-09-20T21:13:57.554Z,22.70
2018-09-20T21:16:25.729Z,22.70
2018-09-20T21:18:53.939Z,22.70
2018-09-20T21:21:22.435Z,22.80
2018-09-20T21:23:50.637Z,22.70
2018-09-20T21:26:18.851Z,22.70
2018-09-20T21:28:47.047Z,22.60
2018-09-20T21:31:15.324Z,22.60
2018-09-20T21:33:43.587Z,22.50
2018-09-20T21:36:11.777Z,22.40
2018-09-20T21:38:40.041Z,22.30
2018-09-20T21:41:08.506Z,22.20
2018-09-20T21:43:36.761Z,22.10
2018-09-20T21:46:05.049Z,22.00
2018-09-20T21:48:33.332Z,21.90
2018-09-20T21:51:01.583Z,21.80
2018-09-20T21:53:29.724Z,21.70
2018-09-20T21:55:57.932Z,21.60
2018-09-20T21:58:26.128Z,21.50
2018-09-20T22:00:59.544Z,21.50
2018-09-20T22:03:27.744Z,21.40
2018-09-20T22:05:55.938Z,21.30
2018-09-20T22:08:24.205Z,21.30
2018-09-20T22:10:52.407Z,21.30
2018-09-20T22:13:20.634Z,21.30
2018-09-20T22:15:48.920Z,21.30
2018-09-20T22:18:17.190Z,21.20
2018-09-20T22:20:45.396Z,21.20
2018-09-20T22:23:13.651Z,21.10
2018-09-20T22:25:41.855Z,21.10
2018-09-20T22:28:10.098Z,21.00
2018-09-20T22:30:38.344Z,21.10
2018-09-20T22:33:06.529Z,21.10
2018-09-20T22:35:34.730Z,21.10
2018-09-20T22:38:03.010Z,21.10
2018-09-20T22:40:31.280Z,21.10
2018-09-20T22:42:59.526Z,21.10
2018-09-20T22:45:27.780Z,21.00
2018-09-20T22:47:56.241Z,21.00
2018-09-20T22:50:24.451Z,21.00
2018-09-20T22:52:52.644Z,20.90
2018-09-20T22:55:21.268Z,20.90
2018-09-20T22:57:49.500Z,20.80
2018-09-20T23:00:23.032Z,20.80
2018-09-20T23:02:52.200Z,20.70
2018-09-20T23:05:20.402Z,20.60
2018-09-20T23:07:48.590Z,20.60
2018-09-20T23:10:16.860Z,20.50
2018-09-20T23:12:45.616Z,20.50
2018-09-20T23:15:13.850Z,20.50
2018-09-20T23:17:42.046Z,20.50
2018-09-20T23:20:10.308Z,20.50
2018-09-20T23:22:38.572Z,20.40
2018-09-20T23:25:06.824Z,20.40
2018-09-20T23:27:35.042Z,20.40
2018-09-20T23:30:03.236Z,20.40
2018-09-20T23:32:31.470Z,20.30
2018-09-20T23:34:59.685Z,20.30
2018-09-20T23:37:27.902Z,20.20
2018-09-20T23:39:56.092Z,20.20
2018-09-20T23:42:24.454Z,20.20
2018-09-20T23:44:52.664Z,20.20
2018-09-20T23:47:20.858Z,20.20
2018-09-20T23:49:49.148Z,20.20
2018-09-20T23:52:17.342Z,20.20
2018-09-20T23:54:45.534Z,20.20
2018-09-20T23:57:13.718Z,20.20
2018-09-20T23:59:41.918Z,20.20
